sensor_id;sensor_type;location;lat;lon;timestamp;P1;durP1;ratioP1;P2;durP2;ratioP2
82669;SDS011;72377;48.542;-3.202;2023-08-21T07:31:33;2.20;;;0.82;;
82669;SDS011;72377;48.542;-3.202;2023-08-21T07:33:59;1.30;;;0.90;;
82669;SDS011;72377;48.542;-3.202;2023-08-21T07:36:25;1.10;;;1.02;;
82669;SDS011;72377;48.542;-3.202;2023-08-21T07:38:51;1.70;;;1.60;;
82669;SDS011;72377;48.542;-3.202;2023-08-21T07:41:16;2.10;;;1.90;;
82669;SDS011;72377;48.542;-3.202;2023-08-21T07:43:42;7.82;;;5.30;;
82669;SDS011;72377;48.542;-3.202;2023-08-21T07:46:09;6.35;;;2.55;;
82669;SDS011;72377;48.542;-3.202;2023-08-21T07:48:45;4.50;;;4.00;;
82669;SDS011;72377;48.542;-3.202;2023-08-21T07:51:11;4.10;;;3.70;;
82669;SDS011;72377;48.542;-3.202;2023-08-21T07:53:38;7.22;;;5.65;;
82669;SDS011;72377;48.542;-3.202;2023-08-21T07:56:03;5.18;;;4.65;;
82669;SDS011;72377;48.542;-3.202;2023-08-21T07:58:29;3.72;;;3.20;;
82669;SDS011;72377;48.542;-3.202;2023-08-21T08:00:55;3.28;;;2.97;;
82669;SDS011;72377;48.542;-3.202;2023-08-21T08:03:21;4.75;;;2.95;;
82669;SDS011;72377;48.542;-3.202;2023-08-21T08:05:47;6.00;;;2.88;;
82669;SDS011;72377;48.542;-3.202;2023-08-21T08:08:12;3.67;;;2.75;;
82669;SDS011;72377;48.542;-3.202;2023-08-21T08:10:38;3.85;;;2.80;;
82669;SDS011;72377;48.542;-3.202;2023-08-21T08:13:05;3.83;;;2.70;;
82669;SDS011;72377;48.542;-3.202;2023-08-21T08:15:31;3.85;;;3.05;;
82669;SDS011;72377;48.542;-3.202;2023-08-21T08:17:59;6.45;;;3.22;;
82669;SDS011;72377;48.542;-3.202;2023-08-21T08:20:24;4.50;;;3.13;;
82669;SDS011;72377;48.542;-3.202;2023-08-21T08:22:50;4.80;;;3.17;;
82669;SDS011;72377;48.542;-3.202;2023-08-21T08:25:16;9.52;;;3.20;;
82669;SDS011;72377;48.542;-3.202;2023-08-21T08:27:42;9.50;;;3.60;;
82669;SDS011;72377;48.542;-3.202;2023-08-21T08:30:08;9.52;;;3.60;;
82669;SDS011;72377;48.542;-3.202;2023-08-21T08:32:35;6.20;;;3.58;;
82669;SDS011;72377;48.542;-3.202;2023-08-21T08:35:00;7.07;;;3.63;;
82669;SDS011;72377;48.542;-3.202;2023-08-21T08:37:26;7.95;;;3.58;;
82669;SDS011;72377;48.542;-3.202;2023-08-21T08:39:52;7.95;;;4.13;;
82669;SDS011;72377;48.542;-3.202;2023-08-21T08:42:17;7.90;;;3.72;;
82669;SDS011;72377;48.542;-3.202;2023-08-21T08:44:43;5.95;;;3.60;;
82669;SDS011;72377;48.542;-3.202;2023-08-21T08:47:10;4.43;;;3.40;;
82669;SDS011;72377;48.542;-3.202;2023-08-21T08:49:36;6.53;;;3.78;;
82669;SDS011;72377;48.542;-3.202;2023-08-21T08:52:03;9.48;;;3.88;;
82669;SDS011;72377;48.542;-3.202;2023-08-21T08:54:29;7.75;;;3.30;;
82669;SDS011;72377;48.542;-3.202;2023-08-21T08:56:55;7.05;;;3.50;;
82669;SDS011;72377;48.542;-3.202;2023-08-21T08:59:22;9.80;;;3.05;;
82669;SDS011;72377;48.542;-3.202;2023-08-21T09:01:47;7.82;;;2.92;;
82669;SDS011;72377;48.542;-3.202;2023-08-21T09:04:13;8.63;;;3.22;;
82669;SDS011;72377;48.542;-3.202;2023-08-21T09:06:39;12.50;;;3.60;;
82669;SDS011;72377;48.542;-3.202;2023-08-21T09:09:05;8.05;;;4.30;;
82669;SDS011;72377;48.542;-3.202;2023-08-21T09:11:33;8.60;;;4.75;;
82669;SDS011;72377;48.542;-3.202;2023-08-21T09:13:58;10.68;;;4.40;;
82669;SDS011;72377;48.542;-3.202;2023-08-21T09:16:24;9.68;;;4.15;;
82669;SDS011;72377;48.542;-3.202;2023-08-21T09:18:54;8.05;;;3.95;;
82669;SDS011;72377;48.542;-3.202;2023-08-21T09:21:24;13.77;;;4.65;;
82669;SDS011;72377;48.542;-3.202;2023-08-21T09:23:59;8.82;;;4.00;;
82669;SDS011;72377;48.542;-3.202;2023-08-21T09:26:26;11.65;;;4.47;;
82669;SDS011;72377;48.542;-3.202;2023-08-21T09:28:52;12.85;;;4.22;;
82669;SDS011;72377;48.542;-3.202;2023-08-21T09:31:22;13.27;;;4.35;;
82669;SDS011;72377;48.542;-3.202;2023-08-21T09:34:22;10.27;;;3.83;;
82669;SDS011;72377;48.542;-3.202;2023-08-21T09:36:40;9.05;;;3.55;;
82669;SDS011;72377;48.542;-3.202;2023-08-21T09:39:06;8.73;;;3.30;;
82669;SDS011;72377;48.542;-3.202;2023-08-21T09:41:40;10.00;;;3.40;;
82669;SDS011;72377;48.542;-3.202;2023-08-21T09:44:05;5.90;;;2.90;;
82669;SDS011;72377;48.542;-3.202;2023-08-21T09:46:31;7.60;;;2.88;;
82669;SDS011;72377;48.542;-3.202;2023-08-21T09:48:57;10.27;;;2.78;;
82669;SDS011;72377;48.542;-3.202;2023-08-21T09:51:23;8.65;;;2.95;;
82669;SDS011;72377;48.542;-3.202;2023-08-21T09:53:50;10.65;;;2.70;;
82669;SDS011;72377;48.542;-3.202;2023-08-21T09:56:19;5.95;;;2.47;;
82669;SDS011;72377;48.542;-3.202;2023-08-21T09:58:46;8.95;;;2.67;;
82669;SDS011;72377;48.542;-3.202;2023-08-21T10:01:13;11.95;;;2.55;;
82669;SDS011;72377;48.542;-3.202;2023-08-21T10:03:41;8.15;;;2.20;;
82669;SDS011;72377;48.542;-3.202;2023-08-21T10:06:09;6.97;;;2.70;;
82669;SDS011;72377;48.542;-3.202;2023-08-21T10:08:37;7.55;;;2.40;;
82669;SDS011;72377;48.542;-3.202;2023-08-21T10:11:06;8.20;;;2.17;;
82669;SDS011;72377;48.542;-3.202;2023-08-21T10:13:33;8.88;;;2.72;;
82669;SDS011;72377;48.542;-3.202;2023-08-21T10:16:01;9.38;;;2.72;;
82669;SDS011;72377;48.542;-3.202;2023-08-21T10:18:30;6.72;;;2.20;;
82669;SDS011;72377;48.542;-3.202;2023-08-21T10:23:42;7.93;;;2.42;;
82669;SDS011;72377;48.542;-3.202;2023-08-21T10:26:15;8.00;;;2.70;;
82669;SDS011;72377;48.542;-3.202;2023-08-21T10:28:55;11.20;;;2.95;;
82669;SDS011;72377;48.542;-3.202;2023-08-21T10:31:31;6.30;;;2.20;;
82669;SDS011;72377;48.542;-3.202;2023-08-21T10:34:01;7.90;;;2.30;;
82669;SDS011;72377;48.542;-3.202;2023-08-21T10:37:03;8.23;;;2.45;;
82669;SDS011;72377;48.542;-3.202;2023-08-21T10:39:37;9.48;;;2.63;;
82669;SDS011;72377;48.542;-3.202;2023-08-21T10:42:05;7.35;;;2.60;;
82669;SDS011;72377;48.542;-3.202;2023-08-21T10:52:30;7.32;;;2.10;;
82669;SDS011;72377;48.542;-3.202;2023-08-21T10:54:59;5.53;;;1.85;;
82669;SDS011;72377;48.542;-3.202;2023-08-21T10:57:26;6.20;;;2.15;;
82669;SDS011;72377;48.542;-3.202;2023-08-21T10:59:56;6.95;;;1.90;;
82669;SDS011;72377;48.542;-3.202;2023-08-21T11:02:26;8.20;;;2.15;;
82669;SDS011;72377;48.542;-3.202;2023-08-21T11:04:54;5.90;;;2.00;;
82669;SDS011;72377;48.542;-3.202;2023-08-21T11:07:20;6.72;;;2.20;;
82669;SDS011;72377;48.542;-3.202;2023-08-21T11:09:46;6.47;;;1.95;;
82669;SDS011;72377;48.542;-3.202;2023-08-21T11:12:14;4.70;;;1.95;;
82669;SDS011;72377;48.542;-3.202;2023-08-21T11:14:42;5.63;;;2.05;;
82669;SDS011;72377;48.542;-3.202;2023-08-21T11:17:09;4.20;;;1.80;;
82669;SDS011;72377;48.542;-3.202;2023-08-21T11:19:36;5.82;;;1.92;;
82669;SDS011;72377;48.542;-3.202;2023-08-21T11:22:03;10.00;;;2.55;;
82669;SDS011;72377;48.542;-3.202;2023-08-21T11:24:33;5.88;;;2.13;;
82669;SDS011;72377;48.542;-3.202;2023-08-21T11:27:11;5.70;;;2.10;;
82669;SDS011;72377;48.542;-3.202;2023-08-21T11:29:39;4.68;;;1.77;;
82669;SDS011;72377;48.542;-3.202;2023-08-21T11:34:47;5.65;;;1.60;;
82669;SDS011;72377;48.542;-3.202;2023-08-21T11:37:20;6.05;;;1.60;;
82669;SDS011;72377;48.542;-3.202;2023-08-21T11:39:47;6.20;;;1.50;;
82669;SDS011;72377;48.542;-3.202;2023-08-21T11:42:15;6.28;;;1.20;;
82669;SDS011;72377;48.542;-3.202;2023-08-21T11:44:41;5.15;;;1.70;;
82669;SDS011;72377;48.542;-3.202;2023-08-21T11:49:39;5.57;;;1.50;;
82669;SDS011;72377;48.542;-3.202;2023-08-21T11:52:09;4.53;;;1.20;;
82669;SDS011;72377;48.542;-3.202;2023-08-21T11:54:38;6.13;;;1.95;;
82669;SDS011;72377;48.542;-3.202;2023-08-21T11:57:09;4.68;;;1.20;;
82669;SDS011;72377;48.542;-3.202;2023-08-21T11:59:38;5.05;;;1.40;;
82669;SDS011;72377;48.542;-3.202;2023-08-21T12:02:14;10.00;;;1.55;;
82669;SDS011;72377;48.542;-3.202;2023-08-21T12:04:42;11.02;;;1.50;;
82669;SDS011;72377;48.542;-3.202;2023-08-21T12:07:08;6.45;;;1.67;;
82669;SDS011;72377;48.542;-3.202;2023-08-21T12:09:34;3.83;;;1.23;;
82669;SDS011;72377;48.542;-3.202;2023-08-21T12:11:59;7.25;;;1.55;;
82669;SDS011;72377;48.542;-3.202;2023-08-21T12:14:27;4.78;;;1.38;;
82669;SDS011;72377;48.542;-3.202;2023-08-21T12:16:53;6.38;;;1.20;;
82669;SDS011;72377;48.542;-3.202;2023-08-21T12:19:19;6.20;;;1.30;;
82669;SDS011;72377;48.542;-3.202;2023-08-21T12:21:47;4.85;;;1.42;;
82669;SDS011;72377;48.542;-3.202;2023-08-21T12:24:12;3.35;;;1.10;;
82669;SDS011;72377;48.542;-3.202;2023-08-21T12:26:38;4.43;;;1.40;;
82669;SDS011;72377;48.542;-3.202;2023-08-21T12:29:04;5.68;;;1.40;;
82669;SDS011;72377;48.542;-3.202;2023-08-21T12:31:29;2.70;;;1.15;;
82669;SDS011;72377;48.542;-3.202;2023-08-21T12:33:55;6.43;;;1.17;;
82669;SDS011;72377;48.542;-3.202;2023-08-21T12:36:21;3.67;;;1.13;;
82669;SDS011;72377;48.542;-3.202;2023-08-21T12:38:47;3.55;;;0.80;;
82669;SDS011;72377;48.542;-3.202;2023-08-21T12:41:13;3.70;;;1.10;;
82669;SDS011;72377;48.542;-3.202;2023-08-21T12:43:38;3.53;;;0.95;;
82669;SDS011;72377;48.542;-3.202;2023-08-21T12:46:04;2.33;;;1.20;;
82669;SDS011;72377;48.542;-3.202;2023-08-21T12:48:30;5.65;;;1.20;;
82669;SDS011;72377;48.542;-3.202;2023-08-21T12:50:56;5.50;;;1.15;;
82669;SDS011;72377;48.542;-3.202;2023-08-21T12:53:21;5.30;;;1.20;;
82669;SDS011;72377;48.542;-3.202;2023-08-21T12:55:47;3.47;;;1.00;;
82669;SDS011;72377;48.542;-3.202;2023-08-21T12:58:13;6.75;;;1.30;;
82669;SDS011;72377;48.542;-3.202;2023-08-21T13:00:39;3.83;;;1.20;;
82669;SDS011;72377;48.542;-3.202;2023-08-21T13:03:05;6.80;;;1.30;;
82669;SDS011;72377;48.542;-3.202;2023-08-21T13:05:31;4.18;;;0.93;;
82669;SDS011;72377;48.542;-3.202;2023-08-21T13:07:56;5.20;;;1.05;;
82669;SDS011;72377;48.542;-3.202;2023-08-21T13:10:22;3.20;;;1.15;;
82669;SDS011;72377;48.542;-3.202;2023-08-21T13:12:48;4.88;;;1.20;;
82669;SDS011;72377;48.542;-3.202;2023-08-21T13:15:14;6.07;;;1.23;;
82669;SDS011;72377;48.542;-3.202;2023-08-21T13:17:40;3.60;;;1.40;;
82669;SDS011;72377;48.542;-3.202;2023-08-21T13:20:08;5.45;;;1.20;;
82669;SDS011;72377;48.542;-3.202;2023-08-21T13:22:46;6.20;;;1.30;;
82669;SDS011;72377;48.542;-3.202;2023-08-21T13:25:14;4.60;;;1.20;;
82669;SDS011;72377;48.542;-3.202;2023-08-21T13:27:40;4.45;;;1.10;;
82669;SDS011;72377;48.542;-3.202;2023-08-21T13:30:06;6.32;;;1.25;;
82669;SDS011;72377;48.542;-3.202;2023-08-21T13:32:33;2.75;;;0.90;;
82669;SDS011;72377;48.542;-3.202;2023-08-21T13:34:59;3.90;;;1.20;;
82669;SDS011;72377;48.542;-3.202;2023-08-21T13:37:24;6.25;;;1.02;;
82669;SDS011;72377;48.542;-3.202;2023-08-21T13:39:51;2.25;;;0.90;;
82669;SDS011;72377;48.542;-3.202;2023-08-21T13:42:17;2.85;;;1.10;;
82669;SDS011;72377;48.542;-3.202;2023-08-21T13:44:43;4.57;;;0.90;;
82669;SDS011;72377;48.542;-3.202;2023-08-21T13:47:09;3.47;;;1.00;;
82669;SDS011;72377;48.542;-3.202;2023-08-21T13:49:36;5.82;;;1.23;;
82669;SDS011;72377;48.542;-3.202;2023-08-21T13:52:02;2.35;;;0.95;;
82669;SDS011;72377;48.542;-3.202;2023-08-21T13:54:28;3.03;;;1.15;;
82669;SDS011;72377;48.542;-3.202;2023-08-21T13:56:54;3.67;;;1.00;;
82669;SDS011;72377;48.542;-3.202;2023-08-21T13:59:20;3.90;;;1.13;;
82669;SDS011;72377;48.542;-3.202;2023-08-21T14:01:45;10.95;;;1.02;;
82669;SDS011;72377;48.542;-3.202;2023-08-21T14:04:11;4.63;;;1.10;;
82669;SDS011;72377;48.542;-3.202;2023-08-21T14:06:36;2.60;;;1.13;;
82669;SDS011;72377;48.542;-3.202;2023-08-21T14:09:02;3.83;;;0.88;;
82669;SDS011;72377;48.542;-3.202;2023-08-21T14:11:28;12.20;;;1.20;;
82669;SDS011;72377;48.542;-3.202;2023-08-21T14:13:53;7.65;;;1.20;;
82669;SDS011;72377;48.542;-3.202;2023-08-21T14:16:19;2.63;;;0.90;;
82669;SDS011;72377;48.542;-3.202;2023-08-21T14:18:45;2.45;;;0.98;;
82669;SDS011;72377;48.542;-3.202;2023-08-21T14:21:10;3.90;;;0.90;;
82669;SDS011;72377;48.542;-3.202;2023-08-21T14:23:36;5.32;;;1.13;;
82669;SDS011;72377;48.542;-3.202;2023-08-21T14:26:04;6.78;;;1.05;;
82669;SDS011;72377;48.542;-3.202;2023-08-21T14:28:29;3.33;;;0.90;;
82669;SDS011;72377;48.542;-3.202;2023-08-21T14:30:55;4.30;;;1.00;;
82669;SDS011;72377;48.542;-3.202;2023-08-21T14:33:21;2.20;;;0.80;;
82669;SDS011;72377;48.542;-3.202;2023-08-21T14:35:47;6.47;;;1.02;;
82669;SDS011;72377;48.542;-3.202;2023-08-21T14:38:12;6.45;;;1.20;;
82669;SDS011;72377;48.542;-3.202;2023-08-21T14:40:38;5.15;;;1.13;;
82669;SDS011;72377;48.542;-3.202;2023-08-21T14:43:03;4.90;;;1.33;;
82669;SDS011;72377;48.542;-3.202;2023-08-21T14:45:29;6.10;;;1.63;;
82669;SDS011;72377;48.542;-3.202;2023-08-21T14:47:55;7.20;;;1.95;;
82669;SDS011;72377;48.542;-3.202;2023-08-21T14:50:20;9.75;;;2.17;;
82669;SDS011;72377;48.542;-3.202;2023-08-21T14:52:46;6.53;;;1.67;;
82669;SDS011;72377;48.542;-3.202;2023-08-21T14:55:13;4.15;;;1.60;;
82669;SDS011;72377;48.542;-3.202;2023-08-21T14:57:38;7.05;;;2.05;;
82669;SDS011;72377;48.542;-3.202;2023-08-21T15:00:04;7.88;;;2.00;;
82669;SDS011;72377;48.542;-3.202;2023-08-21T15:02:30;6.50;;;2.03;;
82669;SDS011;72377;48.542;-3.202;2023-08-21T15:04:56;6.78;;;2.10;;
82669;SDS011;72377;48.542;-3.202;2023-08-21T15:07:22;8.32;;;2.25;;
82669;SDS011;72377;48.542;-3.202;2023-08-21T15:09:47;7.68;;;1.92;;
82669;SDS011;72377;48.542;-3.202;2023-08-21T15:12:13;4.95;;;1.83;;
82669;SDS011;72377;48.542;-3.202;2023-08-21T15:14:40;7.90;;;1.90;;
82669;SDS011;72377;48.542;-3.202;2023-08-21T15:17:05;7.57;;;2.08;;
82669;SDS011;72377;48.542;-3.202;2023-08-21T15:19:31;5.90;;;1.98;;
82669;SDS011;72377;48.542;-3.202;2023-08-21T15:21:56;9.38;;;2.00;;
82669;SDS011;72377;48.542;-3.202;2023-08-21T15:24:22;8.73;;;1.95;;
82669;SDS011;72377;48.542;-3.202;2023-08-21T15:26:48;7.95;;;2.00;;
82669;SDS011;72377;48.542;-3.202;2023-08-21T15:29:13;6.00;;;2.15;;
82669;SDS011;72377;48.542;-3.202;2023-08-21T15:31:39;7.05;;;1.95;;
82669;SDS011;72377;48.542;-3.202;2023-08-21T15:43:20;8.95;;;2.05;;
82669;SDS011;72377;48.542;-3.202;2023-08-21T15:45:46;6.38;;;2.05;;
82669;SDS011;72377;48.542;-3.202;2023-08-21T15:48:11;5.20;;;1.98;;
82669;SDS011;72377;48.542;-3.202;2023-08-21T15:50:37;8.93;;;1.83;;
82669;SDS011;72377;48.542;-3.202;2023-08-21T15:53:03;8.00;;;2.00;;
82669;SDS011;72377;48.542;-3.202;2023-08-21T15:55:28;6.15;;;1.80;;
82669;SDS011;72377;48.542;-3.202;2023-08-21T15:57:54;8.95;;;2.20;;
82669;SDS011;72377;48.542;-3.202;2023-08-21T16:00:20;8.77;;;2.25;;
82669;SDS011;72377;48.542;-3.202;2023-08-21T16:02:48;8.13;;;1.98;;
82669;SDS011;72377;48.542;-3.202;2023-08-21T16:05:14;6.75;;;2.15;;
82669;SDS011;72377;48.542;-3.202;2023-08-21T16:07:40;4.57;;;1.92;;
82669;SDS011;72377;48.542;-3.202;2023-08-21T16:10:07;8.20;;;2.10;;
82669;SDS011;72377;48.542;-3.202;2023-08-21T16:12:33;9.57;;;2.40;;
82669;SDS011;72377;48.542;-3.202;2023-08-21T16:14:59;6.80;;;2.13;;
82669;SDS011;72377;48.542;-3.202;2023-08-21T16:18:50;10.15;;;1.92;;
82669;SDS011;72377;48.542;-3.202;2023-08-21T16:21:16;10.25;;;2.53;;
82669;SDS011;72377;48.542;-3.202;2023-08-21T16:23:41;6.40;;;2.03;;
82669;SDS011;72377;48.542;-3.202;2023-08-21T16:26:07;10.38;;;2.17;;
82669;SDS011;72377;48.542;-3.202;2023-08-21T16:30:02;11.98;;;2.40;;
82669;SDS011;72377;48.542;-3.202;2023-08-21T16:32:28;9.40;;;2.15;;
82669;SDS011;72377;48.542;-3.202;2023-08-21T16:34:54;6.35;;;2.08;;
82669;SDS011;72377;48.542;-3.202;2023-08-21T16:37:20;10.05;;;2.22;;
82669;SDS011;72377;48.542;-3.202;2023-08-21T16:39:45;9.82;;;2.42;;
82669;SDS011;72377;48.542;-3.202;2023-08-21T16:42:11;8.13;;;2.00;;
82669;SDS011;72377;48.542;-3.202;2023-08-21T16:44:37;4.47;;;2.10;;
82669;SDS011;72377;48.542;-3.202;2023-08-21T16:47:02;9.38;;;2.65;;
82669;SDS011;72377;48.542;-3.202;2023-08-21T16:49:30;8.65;;;2.10;;
82669;SDS011;72377;48.542;-3.202;2023-08-21T16:51:55;4.82;;;2.00;;
82669;SDS011;72377;48.542;-3.202;2023-08-21T16:54:21;5.47;;;2.00;;
82669;SDS011;72377;48.542;-3.202;2023-08-21T16:56:46;6.82;;;2.00;;
82669;SDS011;72377;48.542;-3.202;2023-08-21T16:59:12;9.52;;;2.10;;
82669;SDS011;72377;48.542;-3.202;2023-08-21T17:01:38;5.20;;;2.03;;
82669;SDS011;72377;48.542;-3.202;2023-08-21T17:04:03;14.25;;;2.33;;
82669;SDS011;72377;48.542;-3.202;2023-08-21T17:06:29;5.57;;;2.08;;
82669;SDS011;72377;48.542;-3.202;2023-08-21T17:08:55;7.68;;;1.60;;
82669;SDS011;72377;48.542;-3.202;2023-08-21T17:11:20;6.05;;;1.92;;
82669;SDS011;72377;48.542;-3.202;2023-08-21T17:13:46;8.48;;;2.00;;
